createdAt,value
2023-01-31T00:01:43.962Z,11.52
2023-01-31T00:06:51.191Z,7.63
2023-01-31T00:11:53.433Z,12.18
2023-01-31T00:16:55.394Z,7.63
2023-01-31T00:21:57.708Z,11.50
2023-01-31T00:26:59.719Z,12.07
2023-01-31T00:32:01.633Z,12.00
2023-01-31T00:37:03.427Z,15.60
2023-01-31T00:42:07.612Z,11.73
2023-01-31T00:47:09.285Z,15.60
2023-01-31T00:52:10.947Z,9.63
2023-01-31T00:57:12.681Z,8.32
2023-01-31T01:02:15.059Z,7.90
2023-01-31T01:07:16.841Z,10.70
2023-01-31T01:12:18.645Z,4.82
2023-01-31T01:17:20.697Z,4.95
2023-01-31T01:22:24.060Z,4.35
2023-01-31T01:27:27.327Z,3.40
2023-01-31T01:32:29.769Z,5.43
2023-01-31T01:37:31.656Z,5.40
2023-01-31T01:42:36.321Z,11.00
2023-01-31T01:48:06.907Z,12.10
2023-01-31T01:53:17.818Z,10.32
2023-01-31T01:58:24.435Z,7.38
2023-01-31T02:03:27.315Z,9.02
2023-01-31T02:08:32.252Z,6.90
2023-01-31T02:13:34.570Z,11.73
2023-01-31T02:18:36.332Z,7.72
2023-01-31T02:23:40.993Z,17.35
2023-01-31T02:28:55.020Z,13.52
2023-01-31T02:34:07.821Z,9.25
2023-01-31T02:39:24.614Z,9.25
2023-01-31T02:44:59.243Z,13.02
2023-01-31T02:50:19.468Z,12.02
2023-01-31T02:55:56.467Z,14.05
2023-01-31T03:01:04.164Z,12.18
2023-01-31T03:06:24.745Z,11.52
2023-01-31T03:11:47.857Z,13.95
2023-01-31T03:17:21.644Z,14.18
2023-01-31T03:22:31.677Z,9.82
2023-01-31T03:27:34.990Z,18.40
2023-01-31T03:32:51.520Z,10.18
2023-01-31T03:38:17.656Z,12.85
2023-01-31T03:43:27.179Z,16.25
2023-01-31T03:48:37.183Z,13.80
2023-01-31T03:58:53.815Z,8.07
2023-01-31T04:09:00.607Z,9.18
2023-01-31T04:14:02.364Z,7.97
2023-01-31T04:19:04.079Z,9.10
2023-01-31T04:24:06.115Z,7.75
2023-01-31T04:29:08.017Z,13.35
2023-01-31T04:34:10.295Z,13.25
2023-01-31T04:39:13.663Z,6.60
2023-01-31T04:44:16.692Z,12.57
2023-01-31T04:49:18.375Z,17.40
2023-01-31T04:54:20.350Z,10.40
2023-01-31T04:59:22.035Z,13.77
2023-01-31T05:04:23.784Z,15.50
2023-01-31T05:09:26.077Z,9.43
2023-01-31T05:14:28.058Z,10.10
2023-01-31T05:19:30.113Z,12.02
2023-01-31T05:24:33.683Z,12.70
2023-01-31T05:29:35.468Z,14.38
2023-01-31T05:34:37.416Z,15.55
2023-01-31T05:39:39.222Z,10.85
2023-01-31T05:44:40.930Z,9.85
2023-01-31T05:49:42.584Z,15.93
2023-01-31T05:54:44.258Z,8.48
2023-01-31T05:59:45.950Z,10.45
2023-01-31T06:04:47.725Z,18.35
2023-01-31T06:09:49.517Z,6.28
2023-01-31T06:15:16.172Z,10.15
2023-01-31T06:20:18.148Z,9.43
2023-01-31T06:25:20.103Z,10.40
2023-01-31T06:30:21.985Z,11.90
2023-01-31T06:35:23.660Z,10.32
2023-01-31T06:40:25.563Z,13.48
2023-01-31T06:45:27.353Z,18.52
2023-01-31T06:50:29.041Z,10.32
2023-01-31T06:55:30.805Z,13.82
2023-01-31T07:00:32.915Z,6.35
2023-01-31T07:05:34.711Z,7.88
2023-01-31T07:10:36.401Z,13.02
2023-01-31T07:15:38.129Z,9.85
2023-01-31T07:20:40.966Z,11.32
2023-01-31T07:25:42.712Z,7.10
2023-01-31T07:30:46.205Z,11.25
2023-01-31T07:35:48.044Z,7.03
2023-01-31T07:40:50.331Z,11.65
2023-01-31T07:45:52.294Z,9.73
2023-01-31T07:51:02.057Z,16.67
2023-01-31T07:56:14.258Z,9.40
2023-01-31T08:01:42.514Z,14.73
2023-01-31T08:06:46.305Z,9.15
2023-01-31T08:11:48.182Z,6.07
2023-01-31T08:16:49.900Z,6.85
2023-01-31T08:21:51.611Z,7.40
2023-01-31T08:26:53.638Z,7.00
2023-01-31T08:31:55.443Z,14.90
2023-01-31T08:36:57.325Z,9.40
2023-01-31T08:41:59.012Z,10.02
2023-01-31T08:47:02.327Z,10.50
2023-01-31T08:52:04.365Z,7.93
2023-01-31T08:57:06.128Z,6.85
2023-01-31T09:02:11.188Z,6.55
2023-01-31T09:07:12.851Z,12.02
2023-01-31T09:12:14.475Z,9.68
2023-01-31T09:17:16.168Z,9.82
2023-01-31T09:22:18.036Z,7.95
2023-01-31T09:27:19.722Z,12.98
2023-01-31T09:32:21.385Z,8.90
2023-01-31T09:37:23.106Z,6.45
2023-01-31T09:42:31.913Z,14.32
2023-01-31T09:47:38.095Z,8.10
2023-01-31T09:52:39.781Z,7.82
2023-01-31T09:57:56.878Z,10.25
2023-01-31T10:08:54.409Z,8.88
2023-01-31T10:14:05.113Z,8.23
2023-01-31T10:19:12.510Z,9.73
2023-01-31T10:24:46.314Z,7.93
2023-01-31T10:29:54.133Z,11.95
2023-01-31T10:35:21.913Z,8.45
2023-01-31T10:40:35.763Z,4.78
2023-01-31T10:45:38.567Z,10.23
2023-01-31T10:50:48.655Z,6.75
2023-01-31T10:56:13.479Z,7.68
2023-01-31T11:01:15.332Z,9.70
2023-01-31T11:06:17.630Z,10.30
2023-01-31T11:11:22.961Z,7.57
2023-01-31T11:16:28.229Z,5.25
2023-01-31T11:21:34.183Z,5.57
2023-01-31T11:26:39.084Z,7.32
2023-01-31T11:31:43.171Z,5.60
2023-01-31T11:36:46.535Z,7.82
2023-01-31T11:41:48.534Z,4.13
2023-01-31T11:46:54.512Z,15.30
2023-01-31T11:51:59.370Z,8.00
2023-01-31T11:57:02.049Z,7.53
2023-01-31T12:02:04.749Z,9.30
2023-01-31T12:07:22.407Z,7.43
2023-01-31T12:12:31.391Z,6.40
2023-01-31T12:17:42.896Z,8.57
2023-01-31T12:23:06.446Z,8.90
2023-01-31T12:28:37.793Z,9.48
2023-01-31T12:34:10.548Z,7.22
2023-01-31T12:39:44.274Z,11.00
2023-01-31T12:44:51.302Z,7.78
2023-01-31T12:50:17.393Z,8.00
2023-01-31T12:55:47.740Z,8.13
2023-01-31T13:00:56.595Z,8.05
2023-01-31T13:06:06.993Z,6.78
2023-01-31T13:11:13.856Z,9.25
2023-01-31T13:16:41.789Z,12.32
2023-01-31T13:21:49.028Z,9.70
2023-01-31T13:32:25.604Z,7.90
2023-01-31T13:37:30.475Z,8.18
2023-01-31T13:42:33.256Z,11.57
2023-01-31T13:47:48.018Z,7.97
2023-01-31T13:52:57.005Z,12.88
2023-01-31T13:58:06.061Z,8.57
2023-01-31T14:03:16.831Z,7.43
2023-01-31T14:08:38.964Z,10.95
2023-01-31T14:13:43.903Z,9.23
2023-01-31T14:18:46.760Z,6.72
2023-01-31T14:23:48.569Z,8.98
2023-01-31T14:28:50.800Z,10.50
2023-01-31T14:33:57.434Z,12.45
2023-01-31T14:39:53.700Z,16.58
2023-01-31T14:44:59.385Z,7.40
2023-01-31T14:57:46.009Z,10.10
2023-01-31T15:02:47.951Z,10.98
2023-01-31T15:08:01.923Z,7.60
2023-01-31T15:13:04.031Z,5.18
2023-01-31T15:18:22.102Z,9.70
2023-01-31T15:23:27.664Z,6.35
2023-01-31T15:28:34.810Z,7.40
2023-01-31T15:39:16.902Z,12.83
2023-01-31T15:44:24.002Z,5.45
2023-01-31T15:49:40.778Z,5.50
2023-01-31T15:55:00.059Z,12.23
2023-01-31T16:00:02.112Z,8.35
2023-01-31T16:05:09.687Z,6.20
2023-01-31T16:10:13.268Z,4.95
2023-01-31T16:15:21.884Z,7.03
2023-01-31T16:20:57.822Z,5.63
2023-01-31T16:26:08.625Z,3.58
2023-01-31T16:31:13.921Z,4.20
2023-01-31T16:36:20.679Z,4.10
2023-01-31T16:41:42.935Z,3.92
2023-01-31T16:46:46.506Z,6.88
2023-01-31T16:51:49.411Z,4.43
2023-01-31T16:57:03.007Z,7.55
2023-01-31T17:02:17.926Z,3.70
2023-01-31T17:07:27.316Z,4.28
2023-01-31T17:12:32.531Z,4.03
2023-01-31T17:17:37.318Z,5.22
2023-01-31T17:22:39.180Z,6.20
2023-01-31T17:27:41.146Z,4.82
2023-01-31T17:32:42.955Z,6.95
2023-01-31T17:37:45.339Z,3.42
2023-01-31T17:42:47.175Z,6.32
2023-01-31T17:47:49.062Z,4.47
2023-01-31T17:52:51.398Z,3.80
2023-01-31T17:57:53.235Z,3.65
2023-01-31T18:02:54.954Z,3.85
2023-01-31T18:07:56.646Z,4.25
2023-01-31T18:12:58.436Z,3.50
2023-01-31T18:18:00.824Z,4.43
2023-01-31T18:23:02.535Z,2.42
2023-01-31T18:28:04.408Z,2.55
2023-01-31T18:33:06.127Z,1.83
2023-01-31T18:38:08.689Z,3.25
2023-01-31T18:43:10.656Z,4.78
2023-01-31T18:48:12.440Z,3.08
2023-01-31T18:53:14.164Z,2.10
2023-01-31T18:58:16.531Z,2.22
2023-01-31T19:03:18.243Z,3.55
2023-01-31T19:08:19.972Z,2.28
2023-01-31T19:13:25.756Z,2.22
2023-01-31T19:18:27.562Z,2.50
2023-01-31T19:23:29.396Z,2.00
2023-01-31T19:28:31.684Z,1.92
2023-01-31T19:33:34.448Z,2.33
2023-01-31T19:38:36.139Z,2.45
2023-01-31T19:43:38.178Z,1.85
2023-01-31T19:48:39.929Z,2.00
2023-01-31T19:53:42.542Z,3.08
2023-01-31T19:58:44.569Z,2.30
2023-01-31T20:03:47.267Z,2.03
2023-01-31T20:08:54.954Z,2.80
2023-01-31T20:13:58.067Z,1.60
2023-01-31T20:19:06.345Z,1.98
2023-01-31T20:24:08.559Z,2.03
2023-01-31T20:29:12.303Z,1.95
2023-01-31T20:34:13.992Z,2.75
2023-01-31T20:39:15.615Z,1.60
2023-01-31T20:44:17.316Z,2.20
2023-01-31T20:49:21.313Z,1.98
2023-01-31T20:54:23.342Z,1.63
2023-01-31T20:59:25.099Z,1.50
2023-01-31T21:04:26.737Z,2.38
2023-01-31T21:09:28.957Z,2.10
2023-01-31T21:14:30.643Z,2.10
2023-01-31T21:19:32.275Z,2.92
2023-01-31T21:24:33.956Z,2.28
2023-01-31T21:29:35.608Z,4.30
2023-01-31T21:34:38.841Z,3.58
2023-01-31T21:39:42.265Z,3.78
2023-01-31T21:44:45.331Z,3.45
2023-01-31T21:49:47.177Z,2.70
2023-01-31T21:54:49.032Z,3.70
2023-01-31T21:59:50.844Z,2.85
2023-01-31T22:04:52.663Z,3.53
2023-01-31T22:09:54.471Z,3.95
2023-01-31T22:14:56.242Z,3.58
2023-01-31T22:19:57.897Z,4.47
2023-01-31T22:24:59.581Z,6.63
2023-01-31T22:30:15.224Z,5.05
2023-01-31T22:35:17.594Z,4.63
2023-01-31T22:40:19.696Z,6.30
2023-01-31T22:45:21.637Z,6.15
2023-01-31T22:50:23.568Z,5.60
2023-01-31T22:55:25.423Z,5.28
2023-01-31T23:00:27.102Z,7.65
2023-01-31T23:05:29.039Z,5.13
2023-01-31T23:10:30.664Z,6.85
2023-01-31T23:15:32.772Z,7.43
2023-01-31T23:20:34.509Z,6.60
2023-01-31T23:25:36.201Z,6.63
2023-01-31T23:30:38.098Z,7.38
2023-01-31T23:35:39.768Z,5.18
2023-01-31T23:40:41.663Z,9.15
2023-01-31T23:45:43.421Z,6.65
2023-01-31T23:50:45.102Z,12.68
2023-01-31T23:55:46.712Z,6.72
